createdAt,value
2019-01-18T00:02:19.531Z,1.40
2019-01-18T00:05:15.029Z,1.70
2019-01-18T00:08:11.782Z,1.83
2019-01-18T00:11:09.920Z,1.98
2019-01-18T00:14:04.907Z,1.47
2019-01-18T00:17:01.097Z,1.33
2019-01-18T00:19:56.794Z,1.60
2019-01-18T00:22:53.313Z,2.10
2019-01-18T00:25:49.117Z,1.63
2019-01-18T00:28:50.012Z,1.67
2019-01-18T00:31:50.036Z,2.40
2019-01-18T00:34:46.818Z,1.70
2019-01-18T00:37:45.389Z,1.60
2019-01-18T00:40:40.730Z,1.60
2019-01-18T00:43:36.206Z,1.60
2019-01-18T00:46:32.610Z,1.70
2019-01-18T00:49:29.152Z,1.60
2019-01-18T00:52:25.487Z,1.33
2019-01-18T00:55:21.980Z,1.30
2019-01-18T00:58:19.654Z,1.00
2019-01-18T01:01:16.318Z,1.30
2019-01-18T01:04:12.037Z,1.20
2019-01-18T01:07:08.582Z,1.13
2019-01-18T01:10:04.398Z,1.20
2019-01-18T01:13:01.148Z,1.00
2019-01-18T01:15:56.831Z,1.20
2019-01-18T01:18:53.851Z,1.17
2019-01-18T01:21:49.374Z,1.80
2019-01-18T01:24:45.586Z,1.20
2019-01-18T01:27:41.030Z,1.13
2019-01-18T01:30:39.877Z,1.07
2019-01-18T01:33:34.948Z,1.10
2019-01-18T01:36:31.424Z,1.20
2019-01-18T01:39:29.131Z,1.15
2019-01-18T01:42:24.595Z,1.20
2019-01-18T01:45:20.993Z,1.40
2019-01-18T01:48:16.327Z,1.60
2019-01-18T01:51:12.786Z,1.20
2019-01-18T01:54:08.250Z,1.50
2019-01-18T01:57:04.964Z,1.70
2019-01-18T02:00:02.115Z,1.43
2019-01-18T02:02:57.793Z,1.77
2019-01-18T02:05:54.297Z,2.05
2019-01-18T02:08:50.763Z,2.03
2019-01-18T02:11:47.292Z,1.90
2019-01-18T02:14:43.050Z,2.03
2019-01-18T02:17:40.743Z,1.80
2019-01-18T02:20:36.060Z,1.80
2019-01-18T02:23:32.584Z,1.70
2019-01-18T02:26:29.149Z,1.73
2019-01-18T02:29:25.822Z,1.80
2019-01-18T02:32:22.459Z,1.83
2019-01-18T02:35:17.942Z,2.10
2019-01-18T02:38:18.277Z,2.17
2019-01-18T02:41:23.374Z,1.70
2019-01-18T02:44:19.997Z,2.33
2019-01-18T02:47:16.854Z,2.10
2019-01-18T02:50:12.486Z,2.00
2019-01-18T02:53:09.880Z,2.00
2019-01-18T02:56:06.182Z,2.10
2019-01-18T02:59:02.784Z,2.00
2019-01-18T03:01:59.575Z,1.90
2019-01-18T03:04:55.862Z,2.50
2019-01-18T03:07:52.609Z,2.00
2019-01-18T03:10:49.179Z,2.22
2019-01-18T03:13:45.634Z,2.27
2019-01-18T03:16:42.112Z,2.55
2019-01-18T03:19:37.085Z,2.40
2019-01-18T03:22:33.830Z,2.40
2019-01-18T03:25:31.585Z,2.30
2019-01-18T03:28:28.053Z,2.40
2019-01-18T03:31:25.301Z,2.35
2019-01-18T03:34:21.026Z,2.80
2019-01-18T03:37:17.615Z,2.70
2019-01-18T03:40:15.329Z,2.62
2019-01-18T03:43:12.324Z,3.23
2019-01-18T03:46:07.255Z,3.60
2019-01-18T03:49:21.194Z,2.83
2019-01-18T03:52:17.970Z,2.70
2019-01-18T03:55:14.452Z,2.20
2019-01-18T03:58:11.411Z,2.90
2019-01-18T04:01:09.082Z,3.17
2019-01-18T04:04:05.854Z,2.77
2019-01-18T04:07:02.566Z,2.87
2019-01-18T04:09:58.041Z,2.50
2019-01-18T04:12:54.420Z,2.93
2019-01-18T04:15:49.754Z,3.20
2019-01-18T04:18:46.367Z,2.83
2019-01-18T04:21:43.205Z,3.20
2019-01-18T04:24:37.629Z,2.80
2019-01-18T04:27:34.306Z,2.90
2019-01-18T04:30:33.577Z,3.30
2019-01-18T04:33:28.129Z,2.73
2019-01-18T04:36:23.822Z,3.40
2019-01-18T04:39:20.108Z,3.10
2019-01-18T04:42:17.616Z,2.83
2019-01-18T04:45:14.282Z,4.00
2019-01-18T04:48:15.200Z,3.30
2019-01-18T04:51:23.114Z,3.25
2019-01-18T04:54:21.403Z,3.07
2019-01-18T04:57:18.036Z,3.07
2019-01-18T05:00:13.090Z,3.00
2019-01-18T05:03:09.164Z,3.20
2019-01-18T05:06:04.881Z,3.63
2019-01-18T05:09:01.343Z,3.15
2019-01-18T05:11:58.094Z,3.53
2019-01-18T05:14:54.788Z,4.20
2019-01-18T05:17:50.208Z,3.50
2019-01-18T05:20:46.712Z,3.20
2019-01-18T05:23:41.456Z,3.30
2019-01-18T05:26:37.855Z,3.10
2019-01-18T05:29:34.602Z,4.00
2019-01-18T05:32:31.181Z,3.40
2019-01-18T05:35:28.558Z,3.20
2019-01-18T05:38:23.868Z,3.13
2019-01-18T05:41:20.564Z,3.53
2019-01-18T05:44:18.334Z,3.30
2019-01-18T05:47:13.746Z,2.90
2019-01-18T05:50:09.877Z,3.47
2019-01-18T05:53:05.336Z,4.60
2019-01-18T05:56:12.376Z,3.37
2019-01-18T05:59:09.066Z,3.45
2019-01-18T06:02:05.650Z,3.40
2019-01-18T06:05:02.149Z,3.40
2019-01-18T06:07:57.888Z,3.57
2019-01-18T06:10:54.596Z,3.87
2019-01-18T06:13:51.209Z,3.57
2019-01-18T06:16:47.952Z,2.77
2019-01-18T06:19:44.746Z,3.80
2019-01-18T06:22:41.421Z,3.40
2019-01-18T06:25:37.904Z,3.50
2019-01-18T06:28:33.868Z,3.60
2019-01-18T06:31:30.744Z,3.40
2019-01-18T06:34:27.310Z,3.70
2019-01-18T06:37:22.972Z,4.20
2019-01-18T06:40:19.370Z,4.00
2019-01-18T06:43:15.895Z,3.30
2019-01-18T06:46:13.576Z,3.95
2019-01-18T06:49:10.018Z,3.97
2019-01-18T06:52:05.739Z,3.60
2019-01-18T06:55:02.558Z,3.90
2019-01-18T06:58:03.211Z,3.80
2019-01-18T07:01:10.210Z,3.03
2019-01-18T07:04:06.950Z,3.60
2019-01-18T07:07:03.691Z,3.77
2019-01-18T07:10:00.244Z,3.70
2019-01-18T07:12:55.803Z,4.20
2019-01-18T07:15:51.660Z,3.37
2019-01-18T07:18:47.368Z,3.70
2019-01-18T07:21:43.963Z,3.52
2019-01-18T07:24:41.451Z,3.50
2019-01-18T07:27:36.986Z,3.65
2019-01-18T07:30:37.628Z,4.87
2019-01-18T07:33:34.314Z,3.80
2019-01-18T07:36:30.859Z,4.43
2019-01-18T07:39:26.355Z,4.50
2019-01-18T07:42:22.817Z,4.27
2019-01-18T07:45:19.655Z,4.10
2019-01-18T07:48:15.179Z,5.33
2019-01-18T07:51:12.217Z,3.97
2019-01-18T07:54:07.550Z,4.17
2019-01-18T07:57:05.330Z,3.63
2019-01-18T08:00:00.906Z,4.20
2019-01-18T08:03:03.682Z,4.50
2019-01-18T08:06:00.637Z,4.70
2019-01-18T08:08:57.165Z,4.45
2019-01-18T08:11:53.689Z,5.27
2019-01-18T08:14:50.163Z,4.40
2019-01-18T08:17:46.759Z,4.43
2019-01-18T08:20:42.229Z,4.20
2019-01-18T08:23:38.733Z,3.87
2019-01-18T08:26:34.365Z,4.90
2019-01-18T08:29:30.924Z,6.37
2019-01-18T08:32:26.498Z,4.57
2019-01-18T08:35:24.016Z,4.00
2019-01-18T08:38:19.950Z,3.60
2019-01-18T08:41:15.520Z,4.00
2019-01-18T08:44:12.892Z,3.50
2019-01-18T08:47:08.297Z,4.80
2019-01-18T08:50:05.869Z,3.40
2019-01-18T08:53:02.144Z,3.30
2019-01-18T08:55:58.910Z,3.62
2019-01-18T08:58:55.511Z,3.50
2019-01-18T09:01:51.407Z,3.00
2019-01-18T09:04:48.169Z,3.00
2019-01-18T09:07:50.986Z,4.13
2019-01-18T09:10:51.650Z,3.27
2019-01-18T09:13:47.346Z,3.40
2019-01-18T09:16:43.329Z,3.13
2019-01-18T09:19:38.714Z,3.00
2019-01-18T09:22:35.254Z,3.50
2019-01-18T09:25:34.525Z,3.15
2019-01-18T09:28:30.215Z,2.80
2019-01-18T09:31:28.014Z,3.23
2019-01-18T09:34:23.496Z,2.83
2019-01-18T09:37:20.012Z,3.30
2019-01-18T09:40:14.617Z,3.23
2019-01-18T09:43:12.258Z,3.43
2019-01-18T09:46:10.033Z,2.90
2019-01-18T09:49:05.764Z,2.80
2019-01-18T09:52:03.318Z,3.33
2019-01-18T09:54:58.723Z,3.37
2019-01-18T09:57:54.980Z,4.70
2019-01-18T10:00:51.457Z,3.70
2019-01-18T10:03:48.206Z,3.50
2019-01-18T10:06:49.146Z,3.80
2019-01-18T10:09:46.150Z,3.45
2019-01-18T10:12:42.479Z,5.17
2019-01-18T10:16:06.798Z,4.60
2019-01-18T10:19:03.908Z,3.85
2019-01-18T10:22:00.158Z,4.53
2019-01-18T10:24:57.592Z,4.03
2019-01-18T10:27:58.511Z,4.70
2019-01-18T10:30:55.766Z,4.07
2019-01-18T10:33:53.089Z,4.50
2019-01-18T10:36:50.222Z,4.57
2019-01-18T10:39:46.921Z,4.00
2019-01-18T10:42:44.009Z,4.30
2019-01-18T10:45:42.339Z,4.62
2019-01-18T10:48:40.510Z,3.63
2019-01-18T10:51:37.809Z,4.10
2019-01-18T10:54:35.975Z,4.40
2019-01-18T10:57:33.467Z,4.25
2019-01-18T11:00:33.969Z,3.87
2019-01-18T11:03:31.211Z,3.80
2019-01-18T11:06:28.327Z,3.87
2019-01-18T11:09:25.151Z,3.83
2019-01-18T11:12:27.329Z,3.60
2019-01-18T11:15:25.800Z,4.20
2019-01-18T11:18:21.789Z,3.67
2019-01-18T11:21:28.493Z,3.57
2019-01-18T11:24:24.784Z,4.17
2019-01-18T11:27:22.918Z,4.87
2019-01-18T11:30:18.482Z,3.73
2019-01-18T11:33:14.383Z,3.17
2019-01-18T11:36:12.625Z,3.58
2019-01-18T11:39:08.844Z,4.10
2019-01-18T11:42:05.478Z,3.10
2019-01-18T11:45:02.634Z,4.00
2019-01-18T11:48:00.755Z,3.33
2019-01-18T11:50:56.980Z,4.17
2019-01-18T11:53:53.956Z,3.50
2019-01-18T11:56:53.478Z,3.80
2019-01-18T11:59:53.927Z,3.70
2019-01-18T12:02:52.429Z,3.43
2019-01-18T12:05:48.615Z,3.47
2019-01-18T12:08:45.927Z,4.28
2019-01-18T12:11:43.184Z,3.77
2019-01-18T12:14:39.568Z,3.35
2019-01-18T12:17:37.733Z,3.90
2019-01-18T12:20:36.624Z,4.07
2019-01-18T12:23:33.174Z,4.17
2019-01-18T12:26:29.144Z,4.90
2019-01-18T12:29:26.092Z,4.73
2019-01-18T12:32:28.609Z,3.80
2019-01-18T12:35:18.984Z,4.03
2019-01-18T12:38:17.496Z,3.37
2019-01-18T12:41:13.723Z,3.60
2019-01-18T12:44:11.917Z,3.87
2019-01-18T12:47:15.093Z,3.00
2019-01-18T12:50:12.340Z,3.40
2019-01-18T12:53:09.620Z,3.63
2019-01-18T12:56:05.954Z,3.35
2019-01-18T12:59:05.331Z,3.60
2019-01-18T13:02:02.728Z,2.80
2019-01-18T13:04:58.724Z,3.10
2019-01-18T13:07:56.380Z,6.63
2019-01-18T13:10:52.860Z,3.27
2019-01-18T13:13:49.672Z,2.73
2019-01-18T13:17:03.846Z,3.23
2019-01-18T13:20:00.434Z,1.97
2019-01-18T13:22:57.478Z,2.60
2019-01-18T13:25:54.654Z,2.70
2019-01-18T13:28:52.703Z,2.23
2019-01-18T13:31:49.810Z,2.20
2019-01-18T13:34:47.253Z,2.17
2019-01-18T13:37:43.270Z,2.13
2019-01-18T13:40:39.996Z,1.73
2019-01-18T13:43:36.016Z,2.20
2019-01-18T13:46:33.255Z,2.00
2019-01-18T13:49:29.928Z,1.80
2019-01-18T13:52:26.889Z,2.33
2019-01-18T13:55:26.972Z,2.00
2019-01-18T13:58:25.127Z,1.53
2019-01-18T14:01:21.768Z,1.80
2019-01-18T14:04:17.564Z,2.10
2019-01-18T14:07:14.146Z,1.90
2019-01-18T14:10:14.731Z,3.53
2019-01-18T14:13:12.264Z,3.70
2019-01-18T14:16:08.827Z,2.83
2019-01-18T14:19:06.447Z,3.42
2019-01-18T14:22:02.920Z,3.57
2019-01-18T14:25:06.466Z,3.87
2019-01-18T14:28:02.657Z,4.20
2019-01-18T14:30:58.422Z,3.47
2019-01-18T14:33:54.138Z,3.80
2019-01-18T14:36:50.655Z,3.70
2019-01-18T14:39:48.165Z,4.00
2019-01-18T14:42:44.776Z,4.07
2019-01-18T14:45:53.807Z,3.27
2019-01-18T14:48:50.519Z,3.23
2019-01-18T14:51:46.860Z,3.67
2019-01-18T14:54:42.587Z,4.00
2019-01-18T14:57:39.352Z,3.77
2019-01-18T15:00:42.828Z,3.67
2019-01-18T15:03:39.257Z,3.43
2019-01-18T15:06:35.629Z,4.35
2019-01-18T15:09:31.357Z,3.77
2019-01-18T15:12:27.842Z,3.90
2019-01-18T15:15:24.200Z,4.10
2019-01-18T15:18:21.951Z,4.85
2019-01-18T15:21:17.513Z,3.90
2019-01-18T15:24:15.171Z,4.75
2019-01-18T15:27:10.663Z,4.67
2019-01-18T15:30:08.180Z,4.33
2019-01-18T15:33:09.086Z,4.40
2019-01-18T15:36:02.136Z,4.77
2019-01-18T15:39:09.951Z,4.50
2019-01-18T15:42:05.446Z,7.63
2019-01-18T15:45:01.652Z,16.37
2019-01-18T15:47:58.011Z,8.73
2019-01-18T15:50:56.797Z,6.67
2019-01-18T15:53:53.499Z,4.63
2019-01-18T15:57:00.199Z,4.10
2019-01-18T15:59:57.376Z,5.23
2019-01-18T16:02:54.076Z,5.53
2019-01-18T16:05:51.581Z,5.10
2019-01-18T16:08:49.547Z,5.60
2019-01-18T16:11:46.348Z,5.20
2019-01-18T16:14:44.573Z,5.63
2019-01-18T16:17:46.007Z,5.45
2019-01-18T16:20:43.550Z,5.55
2019-01-18T16:23:39.053Z,5.73
2019-01-18T16:26:35.619Z,5.25
2019-01-18T16:29:31.227Z,5.90
2019-01-18T16:32:27.498Z,5.63
2019-01-18T16:35:29.194Z,5.90
2019-01-18T16:38:25.937Z,6.50
2019-01-18T16:41:21.416Z,6.63
2019-01-18T16:44:20.278Z,6.60
2019-01-18T16:47:17.167Z,6.90
2019-01-18T16:50:12.517Z,9.48
2019-01-18T16:53:08.963Z,9.75
2019-01-18T16:56:04.447Z,9.30
2019-01-18T16:59:01.091Z,8.50
2019-01-18T17:01:56.858Z,10.57
2019-01-18T17:04:54.450Z,9.67
2019-01-18T17:07:49.931Z,11.17
2019-01-18T17:10:47.480Z,11.60
2019-01-18T17:13:45.040Z,12.67
2019-01-18T17:16:45.022Z,12.77
2019-01-18T17:19:38.968Z,11.73
2019-01-18T17:22:35.734Z,11.23
2019-01-18T17:25:31.957Z,11.10
2019-01-18T17:28:26.915Z,12.13
2019-01-18T17:31:24.903Z,13.47
2019-01-18T17:34:20.668Z,15.90
2019-01-18T17:37:36.900Z,15.63
2019-01-18T17:40:42.422Z,16.47
2019-01-18T17:44:15.522Z,17.13
2019-01-18T17:47:36.213Z,17.37
2019-01-18T17:51:09.102Z,15.50
2019-01-18T17:54:25.843Z,15.40
2019-01-18T17:57:53.497Z,20.20
2019-01-18T18:01:10.393Z,26.10
2019-01-18T18:04:38.322Z,23.63
2019-01-18T18:08:12.189Z,15.50
2019-01-18T18:11:48.266Z,15.60
2019-01-18T18:15:19.608Z,10.63
2019-01-18T18:18:43.124Z,10.97
2019-01-18T18:22:08.623Z,12.17
2019-01-18T18:25:31.628Z,10.67
2019-01-18T18:28:53.173Z,9.53
2019-01-18T18:32:31.433Z,13.10
2019-01-18T18:35:52.233Z,9.63
2019-01-18T18:39:07.824Z,8.73
2019-01-18T18:42:30.263Z,9.30
2019-01-18T18:45:53.765Z,10.73
2019-01-18T18:49:13.593Z,12.70
2019-01-18T18:52:38.804Z,10.10
2019-01-18T18:56:02.279Z,8.43
2019-01-18T18:59:21.355Z,9.70
2019-01-18T19:02:48.398Z,9.10
2019-01-18T19:06:07.505Z,9.30
2019-01-18T19:09:25.013Z,9.60
2019-01-18T19:12:32.541Z,10.17
2019-01-18T19:15:57.378Z,10.83
2019-01-18T19:19:32.384Z,10.53
2019-01-18T19:22:42.006Z,10.07
2019-01-18T19:26:09.365Z,11.80
2019-01-18T19:29:27.229Z,10.93
2019-01-18T19:33:01.122Z,11.37
2019-01-18T19:36:30.754Z,11.40
2019-01-18T19:40:01.892Z,11.40
2019-01-18T19:43:22.436Z,11.40
2019-01-18T19:46:53.310Z,10.97
2019-01-18T19:50:34.286Z,14.10
2019-01-18T19:54:04.236Z,12.45
2019-01-18T19:57:38.505Z,11.83
2019-01-18T20:01:04.852Z,11.23
2019-01-18T20:04:28.261Z,10.70
2019-01-18T20:08:12.097Z,11.23
2019-01-18T20:11:39.728Z,10.43
2019-01-18T20:15:01.951Z,11.17
2019-01-18T20:18:29.568Z,10.77
2019-01-18T20:21:48.204Z,10.20
2019-01-18T20:25:12.024Z,11.10
2019-01-18T20:28:38.118Z,10.07
2019-01-18T20:31:52.566Z,9.73
2019-01-18T20:35:23.178Z,11.17
2019-01-18T20:38:48.004Z,12.13
2019-01-18T20:42:15.821Z,11.30
2019-01-18T20:45:32.760Z,12.00
2019-01-18T20:49:09.973Z,14.43
2019-01-18T20:52:56.123Z,11.40
2019-01-18T20:56:23.406Z,12.13
2019-01-18T20:59:57.584Z,12.70
2019-01-18T21:03:27.815Z,13.17
2019-01-18T21:06:34.788Z,12.90
2019-01-18T21:10:00.540Z,11.97
2019-01-18T21:13:35.762Z,12.47
2019-01-18T21:16:58.426Z,12.93
2019-01-18T21:20:18.614Z,14.63
2019-01-18T21:24:01.640Z,12.63
2019-01-18T21:27:22.846Z,12.57
2019-01-18T21:31:03.147Z,11.90
2019-01-18T21:34:18.757Z,13.07
2019-01-18T21:37:39.084Z,12.80
2019-01-18T21:41:01.946Z,11.60
2019-01-18T21:44:44.948Z,11.43
2019-01-18T21:48:17.032Z,13.53
2019-01-18T21:51:43.669Z,12.23
2019-01-18T21:55:09.157Z,12.67
2019-01-18T21:58:45.468Z,11.67
2019-01-18T22:02:03.725Z,11.80
2019-01-18T22:05:20.724Z,11.77
2019-01-18T22:08:50.042Z,10.90
2019-01-18T22:12:10.335Z,13.20
2019-01-18T22:15:31.247Z,13.97
2019-01-18T22:18:44.803Z,13.30
2019-01-18T22:21:55.898Z,11.93
2019-01-18T22:25:12.880Z,11.17
2019-01-18T22:28:33.023Z,12.47
2019-01-18T22:32:03.964Z,10.27
2019-01-18T22:35:08.435Z,11.70
2019-01-18T22:38:25.194Z,13.60
2019-01-18T22:41:56.879Z,12.50
2019-01-18T22:45:19.100Z,12.60
2019-01-18T22:48:33.564Z,12.30
2019-01-18T22:52:00.735Z,11.80
2019-01-18T22:55:31.326Z,11.40
2019-01-18T22:58:48.243Z,12.50
2019-01-18T23:02:19.998Z,11.80
2019-01-18T23:05:50.807Z,12.40
2019-01-18T23:09:24.192Z,11.40
2019-01-18T23:12:59.919Z,11.87
2019-01-18T23:16:41.096Z,12.23
2019-01-18T23:20:07.338Z,11.90
2019-01-18T23:23:33.582Z,12.70
2019-01-18T23:27:02.688Z,11.00
2019-01-18T23:30:20.189Z,12.47
2019-01-18T23:33:48.847Z,11.10
2019-01-18T23:37:02.883Z,11.67
2019-01-18T23:40:39.997Z,11.70
2019-01-18T23:44:12.962Z,11.40
2019-01-18T23:47:40.183Z,10.70
2019-01-18T23:50:56.070Z,10.80
2019-01-18T23:54:16.001Z,9.95
2019-01-18T23:57:27.160Z,10.75
